createdAt,value
2023-05-16T00:00:56.220Z,11.88
2023-05-16T00:03:27.584Z,11.85
2023-05-16T00:05:56.262Z,11.83
2023-05-16T00:08:24.537Z,11.81
2023-05-16T00:10:52.718Z,11.79
2023-05-16T00:13:25.276Z,11.77
2023-05-16T00:15:53.793Z,11.74
2023-05-16T00:18:23.286Z,11.73
2023-05-16T00:20:52.483Z,11.72
2023-05-16T00:23:20.521Z,11.71
2023-05-16T00:25:49.314Z,11.71
2023-05-16T00:28:17.505Z,11.71
2023-05-16T00:30:46.506Z,11.71
2023-05-16T00:33:14.812Z,11.71
2023-05-16T00:35:43.028Z,11.71
2023-05-16T00:38:12.721Z,11.71
2023-05-16T00:40:41.023Z,11.72
2023-05-16T00:43:11.269Z,11.73
2023-05-16T00:45:39.546Z,11.73
2023-05-16T00:48:09.501Z,11.74
2023-05-16T00:50:38.048Z,11.74
2023-05-16T00:53:07.248Z,11.75
2023-05-16T00:55:35.943Z,11.76
2023-05-16T00:58:08.824Z,11.76
2023-05-16T01:00:37.701Z,11.78
2023-05-16T01:03:06.725Z,11.78
2023-05-16T01:05:35.305Z,11.80
2023-05-16T01:08:03.399Z,11.80
2023-05-16T01:10:57.543Z,11.79
2023-05-16T01:13:44.150Z,11.79
2023-05-16T01:16:34.894Z,11.80
2023-05-16T01:19:28.596Z,11.80
2023-05-16T01:22:23.527Z,11.81
2023-05-16T01:25:10.554Z,11.81
2023-05-16T01:27:39.246Z,11.82
2023-05-16T01:30:16.456Z,11.82
2023-05-16T01:32:54.945Z,11.82
2023-05-16T01:35:24.253Z,11.82
2023-05-16T01:38:26.400Z,11.83
2023-05-16T01:41:08.711Z,11.85
2023-05-16T01:43:46.611Z,11.88
2023-05-16T01:46:21.242Z,11.90
2023-05-16T01:49:19.280Z,11.92
2023-05-16T01:51:54.394Z,11.95
2023-05-16T01:54:26.553Z,11.98
2023-05-16T01:56:56.579Z,12.01
2023-05-16T01:59:26.773Z,12.02
2023-05-16T02:01:57.913Z,12.03
2023-05-16T02:04:26.385Z,12.05
2023-05-16T02:06:54.958Z,12.07
2023-05-16T02:09:23.133Z,12.08
2023-05-16T02:11:51.308Z,12.09
2023-05-16T02:14:19.353Z,12.09
2023-05-16T02:16:48.532Z,12.08
2023-05-16T02:19:18.338Z,12.08
2023-05-16T02:21:46.783Z,12.07
2023-05-16T02:24:14.797Z,12.07
2023-05-16T02:26:42.968Z,12.05
2023-05-16T02:29:11.299Z,12.05
2023-05-16T02:31:39.661Z,12.03
2023-05-16T02:34:07.771Z,12.01
2023-05-16T02:36:36.386Z,12.00
2023-05-16T02:39:05.226Z,11.99
2023-05-16T02:41:34.221Z,11.97
2023-05-16T02:44:02.252Z,11.95
2023-05-16T02:46:35.024Z,11.94
2023-05-16T02:49:05.771Z,11.93
2023-05-16T02:51:33.945Z,11.91
2023-05-16T02:54:02.069Z,11.91
2023-05-16T02:56:30.063Z,11.90
2023-05-16T02:58:58.215Z,11.89
2023-05-16T03:01:26.460Z,11.89
2023-05-16T03:03:54.835Z,11.88
2023-05-16T03:06:23.696Z,11.87
2023-05-16T03:08:57.113Z,11.87
2023-05-16T03:11:26.950Z,11.86
2023-05-16T03:13:55.254Z,11.86
2023-05-16T03:16:25.510Z,11.86
2023-05-16T03:18:54.014Z,11.85
2023-05-16T03:21:22.416Z,11.85
2023-05-16T03:23:50.773Z,11.85
2023-05-16T03:26:18.908Z,11.86
2023-05-16T03:28:47.625Z,11.86
2023-05-16T03:31:16.480Z,11.86
2023-05-16T03:33:44.669Z,11.87
2023-05-16T03:36:12.898Z,11.87
2023-05-16T03:38:41.081Z,11.88
2023-05-16T03:41:11.914Z,11.90
2023-05-16T03:43:39.917Z,11.91
2023-05-16T03:46:08.660Z,11.93
2023-05-16T03:48:37.051Z,11.96
2023-05-16T03:51:05.839Z,11.99
2023-05-16T03:53:34.316Z,12.02
2023-05-16T03:56:02.505Z,12.07
2023-05-16T03:58:30.729Z,12.12
2023-05-16T04:00:58.960Z,12.17
2023-05-16T04:03:28.866Z,12.22
2023-05-16T04:05:58.127Z,12.28
2023-05-16T04:08:26.249Z,12.34
2023-05-16T04:10:54.563Z,12.41
2023-05-16T04:13:22.838Z,12.48
2023-05-16T04:15:51.261Z,12.56
2023-05-16T04:18:19.648Z,12.64
2023-05-16T04:20:47.705Z,12.73
2023-05-16T04:23:16.200Z,12.82
2023-05-16T04:25:44.169Z,12.90
2023-05-16T04:28:12.590Z,12.98
2023-05-16T04:30:45.900Z,13.06
2023-05-16T04:33:14.535Z,13.15
2023-05-16T04:35:42.535Z,13.23
2023-05-16T04:38:10.785Z,13.31
2023-05-16T04:40:38.837Z,13.37
2023-05-16T04:43:06.932Z,13.43
2023-05-16T04:45:37.448Z,13.48
2023-05-16T04:48:06.589Z,13.53
2023-05-16T04:50:34.749Z,13.56
2023-05-16T04:53:04.741Z,13.58
2023-05-16T04:55:35.285Z,13.62
2023-05-16T04:58:03.464Z,13.65
2023-05-16T05:00:32.135Z,13.68
2023-05-16T05:03:00.420Z,13.69
2023-05-16T05:05:28.819Z,13.70
2023-05-16T05:07:58.472Z,13.70
2023-05-16T05:10:27.967Z,13.70
2023-05-16T05:12:58.750Z,13.70
2023-05-16T05:15:31.048Z,13.72
2023-05-16T05:17:59.378Z,13.74
2023-05-16T05:20:30.753Z,13.77
2023-05-16T05:22:59.019Z,13.80
2023-05-16T05:25:30.258Z,13.83
2023-05-16T05:27:58.408Z,13.86
2023-05-16T05:30:26.707Z,13.88
2023-05-16T05:33:02.590Z,13.91
2023-05-16T05:35:33.792Z,13.95
2023-05-16T05:38:13.341Z,13.98
2023-05-16T05:40:41.522Z,14.01
2023-05-16T05:43:09.961Z,14.03
2023-05-16T05:45:38.315Z,14.05
2023-05-16T05:48:07.302Z,14.07
2023-05-16T05:50:35.689Z,14.09
2023-05-16T05:53:04.416Z,14.10
2023-05-16T05:55:32.749Z,14.10
2023-05-16T05:58:13.211Z,14.11
2023-05-16T06:00:41.561Z,14.11
2023-05-16T06:03:09.998Z,14.13
2023-05-16T06:05:38.659Z,14.16
2023-05-16T06:08:09.469Z,14.18
2023-05-16T06:10:37.716Z,14.19
2023-05-16T06:13:05.812Z,14.18
2023-05-16T06:15:54.670Z,14.17
2023-05-16T06:18:25.321Z,14.17
2023-05-16T06:20:54.092Z,14.18
2023-05-16T06:23:22.292Z,14.19
2023-05-16T06:25:51.047Z,14.20
2023-05-16T06:28:19.639Z,14.21
2023-05-16T06:30:48.334Z,14.24
2023-05-16T06:33:17.012Z,14.26
2023-05-16T06:35:45.706Z,14.29
2023-05-16T06:38:13.927Z,14.30
2023-05-16T06:40:42.253Z,14.31
2023-05-16T06:43:10.436Z,14.31
2023-05-16T06:45:38.809Z,14.33
2023-05-16T06:48:08.923Z,14.34
2023-05-16T06:50:37.070Z,14.35
2023-05-16T06:53:07.392Z,14.37
2023-05-16T06:55:35.842Z,14.38
2023-05-16T06:58:06.655Z,14.40
2023-05-16T07:00:34.890Z,14.42
2023-05-16T07:03:03.991Z,14.43
2023-05-16T07:05:32.497Z,14.45
2023-05-16T07:08:07.819Z,14.46
2023-05-16T07:10:36.891Z,14.48
2023-05-16T07:13:05.355Z,14.50
2023-05-16T07:15:33.901Z,14.52
2023-05-16T07:18:02.068Z,14.54
2023-05-16T07:20:30.688Z,14.55
2023-05-16T07:22:59.874Z,14.57
2023-05-16T07:25:28.336Z,14.58
2023-05-16T07:27:56.957Z,14.58
2023-05-16T07:30:25.337Z,14.58
2023-05-16T07:32:53.924Z,14.59
2023-05-16T07:35:22.161Z,14.61
2023-05-16T07:37:52.478Z,14.63
2023-05-16T07:40:25.948Z,14.66
2023-05-16T07:42:54.288Z,14.69
2023-05-16T07:45:22.592Z,14.73
2023-05-16T07:47:51.008Z,14.76
2023-05-16T07:50:19.359Z,14.79
2023-05-16T07:52:47.774Z,14.81
2023-05-16T07:55:16.037Z,14.83
2023-05-16T07:57:44.174Z,14.85
2023-05-16T08:00:12.960Z,14.88
2023-05-16T08:02:43.763Z,14.90
2023-05-16T08:05:13.412Z,14.91
2023-05-16T08:07:42.039Z,14.92
2023-05-16T08:10:13.660Z,14.95
2023-05-16T08:12:41.918Z,14.97
2023-05-16T08:15:11.397Z,15.00
2023-05-16T08:17:40.038Z,15.02
2023-05-16T08:20:08.800Z,15.06
2023-05-16T08:22:37.139Z,15.10
2023-05-16T08:25:06.109Z,15.13
2023-05-16T08:27:37.143Z,15.18
2023-05-16T08:30:06.593Z,15.21
2023-05-16T08:32:37.893Z,15.25
2023-05-16T08:35:07.273Z,15.31
2023-05-16T08:37:36.228Z,15.38
2023-05-16T08:40:08.359Z,15.46
2023-05-16T08:42:37.662Z,15.56
2023-05-16T08:45:08.135Z,15.66
2023-05-16T08:47:41.488Z,15.79
2023-05-16T08:50:10.688Z,15.90
2023-05-16T08:52:40.667Z,16.01
2023-05-16T08:55:11.669Z,16.12
2023-05-16T08:57:41.302Z,16.23
2023-05-16T09:00:13.477Z,16.31
2023-05-16T09:02:44.356Z,16.39
2023-05-16T09:05:14.912Z,16.47
2023-05-16T09:07:44.308Z,16.56
2023-05-16T09:10:13.088Z,16.65
2023-05-16T09:12:43.228Z,16.75
2023-05-16T09:15:12.188Z,16.83
2023-05-16T09:17:44.687Z,16.91
2023-05-16T09:20:15.825Z,17.02
2023-05-16T09:22:54.798Z,17.15
2023-05-16T09:25:31.064Z,17.31
2023-05-16T09:28:05.199Z,17.49
2023-05-16T09:30:45.280Z,17.65
2023-05-16T09:33:15.048Z,17.76
2023-05-16T09:35:47.225Z,17.85
2023-05-16T09:38:24.895Z,17.90
2023-05-16T09:40:54.375Z,17.92
2023-05-16T09:43:30.087Z,17.95
2023-05-16T09:46:10.964Z,18.02
2023-05-16T09:48:43.008Z,18.17
2023-05-16T09:51:12.906Z,18.37
2023-05-16T09:53:44.445Z,18.58
2023-05-16T09:56:36.298Z,18.78
2023-05-16T09:59:11.335Z,19.01
2023-05-16T10:01:42.808Z,19.24
2023-05-16T10:04:14.424Z,19.48
2023-05-16T10:06:44.313Z,19.78
2023-05-16T10:09:27.863Z,20.13
2023-05-16T10:12:08.031Z,20.45
2023-05-16T10:14:37.847Z,20.75
2023-05-16T10:17:08.788Z,21.03
2023-05-16T10:19:39.635Z,21.26
2023-05-16T10:22:08.588Z,21.42
2023-05-16T10:24:48.441Z,21.53
2023-05-16T10:27:19.315Z,21.61
2023-05-16T10:29:54.701Z,21.71
2023-05-16T10:32:25.515Z,21.83
2023-05-16T10:34:56.371Z,21.96
2023-05-16T10:37:25.156Z,22.07
2023-05-16T10:39:53.322Z,22.17
2023-05-16T10:42:23.942Z,22.31
2023-05-16T10:45:04.934Z,22.47
2023-05-16T10:47:34.028Z,22.66
2023-05-16T10:50:02.462Z,22.86
2023-05-16T10:52:37.328Z,23.04
2023-05-16T10:55:08.764Z,23.21
2023-05-16T10:57:37.221Z,23.32
2023-05-16T11:00:07.769Z,23.39
2023-05-16T11:02:41.710Z,23.46
2023-05-16T11:05:18.013Z,23.46
2023-05-16T11:08:04.809Z,23.43
2023-05-16T11:10:33.415Z,23.40
2023-05-16T11:13:08.571Z,23.39
2023-05-16T11:15:36.582Z,23.37
2023-05-16T11:18:10.064Z,23.35
2023-05-16T11:20:39.924Z,23.28
2023-05-16T11:23:17.230Z,23.20
2023-05-16T11:25:47.328Z,23.11
2023-05-16T11:28:15.399Z,23.04
2023-05-16T11:30:52.676Z,22.99
2023-05-16T11:33:21.432Z,22.96
2023-05-16T11:36:14.582Z,22.92
2023-05-16T11:38:44.531Z,22.86
2023-05-16T11:41:15.517Z,22.79
2023-05-16T11:43:46.074Z,22.72
2023-05-16T11:46:16.349Z,22.65
2023-05-16T11:48:46.553Z,22.58
2023-05-16T11:51:18.916Z,22.50
2023-05-16T11:53:50.222Z,22.45
2023-05-16T11:56:18.829Z,22.40
2023-05-16T11:58:47.291Z,22.36
2023-05-16T12:01:16.184Z,22.34
2023-05-16T12:03:44.670Z,22.33
2023-05-16T12:06:12.860Z,22.33
2023-05-16T12:08:50.512Z,22.35
2023-05-16T12:11:19.119Z,22.40
2023-05-16T12:13:47.915Z,22.47
2023-05-16T12:16:16.725Z,22.55
2023-05-16T12:18:45.638Z,22.68
2023-05-16T12:21:14.211Z,22.78
2023-05-16T12:23:43.757Z,22.88
2023-05-16T12:26:11.959Z,22.98
2023-05-16T12:28:40.193Z,23.10
2023-05-16T12:31:31.161Z,23.25
2023-05-16T12:34:00.310Z,23.39
2023-05-16T12:36:34.348Z,23.52
2023-05-16T12:39:04.238Z,23.66
2023-05-16T12:41:35.580Z,23.76
2023-05-16T12:44:12.306Z,23.83
2023-05-16T12:46:45.945Z,23.88
2023-05-16T12:49:14.921Z,23.91
2023-05-16T12:51:50.114Z,23.93
2023-05-16T12:54:18.918Z,23.94
2023-05-16T12:56:47.253Z,23.94
2023-05-16T12:59:15.570Z,23.90
2023-05-16T13:01:45.938Z,23.85
2023-05-16T13:04:20.268Z,23.81
2023-05-16T13:06:59.383Z,23.75
2023-05-16T13:09:32.168Z,23.70
2023-05-16T13:12:04.401Z,23.64
2023-05-16T13:14:32.924Z,23.57
2023-05-16T13:17:03.786Z,23.47
2023-05-16T13:19:34.415Z,23.39
2023-05-16T13:22:02.794Z,23.29
2023-05-16T13:24:30.766Z,23.20
2023-05-16T13:26:59.616Z,23.09
2023-05-16T13:29:30.732Z,22.97
2023-05-16T13:31:58.960Z,22.86
2023-05-16T13:34:27.187Z,22.75
2023-05-16T13:36:55.330Z,22.60
2023-05-16T13:39:23.653Z,22.48
2023-05-16T13:41:53.552Z,22.38
2023-05-16T13:44:22.914Z,22.27
2023-05-16T13:46:51.661Z,22.16
2023-05-16T13:49:19.912Z,22.11
2023-05-16T13:51:48.200Z,22.08
2023-05-16T13:54:16.436Z,22.05
2023-05-16T13:56:45.388Z,22.04
2023-05-16T13:59:16.803Z,22.06
2023-05-16T14:01:52.283Z,22.07
2023-05-16T14:04:20.615Z,22.09
2023-05-16T14:06:49.371Z,22.11
2023-05-16T14:09:17.389Z,22.13
2023-05-16T14:11:45.528Z,22.14
2023-05-16T14:14:13.548Z,22.15
2023-05-16T14:16:46.295Z,22.13
2023-05-16T14:19:17.339Z,22.09
2023-05-16T14:21:47.673Z,22.04
2023-05-16T14:24:15.741Z,22.01
2023-05-16T14:26:43.817Z,21.99
2023-05-16T14:29:12.986Z,21.96
2023-05-16T14:31:41.104Z,21.94
2023-05-16T14:34:09.259Z,21.91
2023-05-16T14:36:37.820Z,21.87
2023-05-16T14:39:05.872Z,21.83
2023-05-16T14:41:33.934Z,21.78
2023-05-16T14:44:02.365Z,21.73
2023-05-16T14:46:30.697Z,21.70
2023-05-16T14:48:58.950Z,21.67
2023-05-16T14:51:27.163Z,21.64
2023-05-16T14:53:55.538Z,21.60
2023-05-16T14:56:23.644Z,21.55
2023-05-16T14:58:51.820Z,21.51
2023-05-16T15:01:20.108Z,21.46
2023-05-16T15:03:55.237Z,21.41
2023-05-16T15:06:24.882Z,21.36
2023-05-16T15:08:53.838Z,21.30
2023-05-16T15:11:22.340Z,21.23
2023-05-16T15:13:50.560Z,21.15
2023-05-16T15:16:18.826Z,21.06
2023-05-16T15:18:46.907Z,20.97
2023-05-16T15:21:14.986Z,20.88
2023-05-16T15:23:43.586Z,20.79
2023-05-16T15:26:11.731Z,20.70
2023-05-16T15:28:39.840Z,20.62
2023-05-16T15:31:08.080Z,20.53
2023-05-16T15:33:39.307Z,20.45
2023-05-16T15:36:08.051Z,20.36
2023-05-16T15:38:36.623Z,20.28
2023-05-16T15:41:19.760Z,20.21
2023-05-16T15:43:54.171Z,20.14
2023-05-16T15:46:22.634Z,20.07
2023-05-16T15:48:50.824Z,20.01
2023-05-16T15:51:19.520Z,19.94
2023-05-16T15:53:48.211Z,19.88
2023-05-16T15:56:16.770Z,19.82
2023-05-16T15:58:46.856Z,19.73
2023-05-16T16:01:15.154Z,19.67
2023-05-16T16:03:43.696Z,19.61
2023-05-16T16:06:12.060Z,19.56
2023-05-16T16:08:40.165Z,19.50
2023-05-16T16:11:08.608Z,19.45
2023-05-16T16:13:39.982Z,19.40
2023-05-16T16:16:08.326Z,19.34
2023-05-16T16:18:37.234Z,19.29
2023-05-16T16:21:06.019Z,19.24
2023-05-16T16:23:34.274Z,19.19
2023-05-16T16:26:02.947Z,19.14
2023-05-16T16:28:31.448Z,19.10
2023-05-16T16:30:59.934Z,19.06
2023-05-16T16:33:28.238Z,19.01
2023-05-16T16:35:56.402Z,18.96
2023-05-16T16:38:24.618Z,18.90
2023-05-16T16:40:53.441Z,18.85
2023-05-16T16:43:21.476Z,18.78
2023-05-16T16:45:50.649Z,18.72
2023-05-16T16:48:18.812Z,18.66
2023-05-16T16:50:47.286Z,18.60
2023-05-16T16:53:15.490Z,18.55
2023-05-16T16:55:43.715Z,18.49
2023-05-16T16:58:12.094Z,18.43
2023-05-16T17:00:40.260Z,18.36
2023-05-16T17:03:17.568Z,18.30
2023-05-16T17:05:45.893Z,18.22
2023-05-16T17:08:14.642Z,18.16
2023-05-16T17:10:42.711Z,18.10
2023-05-16T17:13:12.489Z,18.04
2023-05-16T17:15:49.611Z,17.97
2023-05-16T17:18:28.263Z,17.89
2023-05-16T17:20:57.135Z,17.82
2023-05-16T17:23:25.390Z,17.74
2023-05-16T17:26:02.485Z,17.68
2023-05-16T17:28:32.701Z,17.61
2023-05-16T17:31:10.080Z,17.53
2023-05-16T17:33:38.463Z,17.46
2023-05-16T17:36:07.787Z,17.40
2023-05-16T17:38:37.870Z,17.33
2023-05-16T17:41:08.665Z,17.26
2023-05-16T17:43:47.691Z,17.18
2023-05-16T17:46:46.261Z,17.11
2023-05-16T17:49:14.733Z,17.02
2023-05-16T17:51:52.296Z,16.93
2023-05-16T17:54:31.235Z,16.88
2023-05-16T17:57:09.634Z,16.82
2023-05-16T17:59:38.467Z,16.76
2023-05-16T18:02:09.938Z,16.70
2023-05-16T18:04:44.095Z,16.65
2023-05-16T18:07:12.836Z,16.61
2023-05-16T18:09:41.171Z,16.58
2023-05-16T18:12:10.291Z,16.55
2023-05-16T18:14:39.040Z,16.54
2023-05-16T18:17:08.370Z,16.53
2023-05-16T18:19:36.958Z,16.52
2023-05-16T18:22:07.685Z,16.51
2023-05-16T18:24:38.706Z,16.50
2023-05-16T18:27:07.850Z,16.50
2023-05-16T18:29:36.100Z,16.51
2023-05-16T18:32:04.780Z,16.51
2023-05-16T18:34:34.129Z,16.53
2023-05-16T18:37:02.475Z,16.54
2023-05-16T18:39:31.862Z,16.55
2023-05-16T18:42:00.733Z,16.55
2023-05-16T18:44:29.159Z,16.56
2023-05-16T18:47:01.038Z,16.59
2023-05-16T18:49:29.687Z,16.62
2023-05-16T18:51:57.965Z,16.66
2023-05-16T18:54:26.044Z,16.71
2023-05-16T18:56:54.531Z,16.76
2023-05-16T18:59:22.878Z,16.82
2023-05-16T19:01:51.004Z,16.86
2023-05-16T19:04:19.210Z,16.89
2023-05-16T19:06:48.851Z,16.93
2023-05-16T19:09:18.493Z,16.95
2023-05-16T19:11:46.721Z,16.99
2023-05-16T19:14:14.839Z,17.01
2023-05-16T19:16:43.112Z,17.03
2023-05-16T19:19:12.554Z,17.04
2023-05-16T19:21:41.813Z,17.05
2023-05-16T19:24:18.309Z,17.06
2023-05-16T19:26:46.470Z,17.06
2023-05-16T19:29:19.161Z,17.08
2023-05-16T19:31:47.467Z,17.11
2023-05-16T19:34:15.624Z,17.14
2023-05-16T19:36:43.807Z,17.19
2023-05-16T19:39:11.966Z,17.26
2023-05-16T19:41:40.576Z,17.32
2023-05-16T19:44:08.706Z,17.38
2023-05-16T19:46:39.971Z,17.41
2023-05-16T19:49:08.893Z,17.44
2023-05-16T19:51:42.000Z,17.45
2023-05-16T19:54:10.666Z,17.46
2023-05-16T19:56:39.033Z,17.49
2023-05-16T19:59:07.342Z,17.51
2023-05-16T20:01:35.666Z,17.52
2023-05-16T20:04:05.515Z,17.53
2023-05-16T20:06:33.873Z,17.52
2023-05-16T20:09:02.004Z,17.54
2023-05-16T20:11:31.020Z,17.56
2023-05-16T20:14:00.419Z,17.58
2023-05-16T20:16:29.092Z,17.58
2023-05-16T20:18:57.362Z,17.57
2023-05-16T20:21:25.705Z,17.56
2023-05-16T20:23:53.937Z,17.56
2023-05-16T20:26:22.572Z,17.57
2023-05-16T20:28:53.678Z,17.57
2023-05-16T20:31:21.936Z,17.56
2023-05-16T20:33:50.297Z,17.54
2023-05-16T20:36:18.926Z,17.52
2023-05-16T20:38:47.551Z,17.51
2023-05-16T20:41:18.162Z,17.50
2023-05-16T20:43:47.063Z,17.50
2023-05-16T20:46:16.023Z,17.48
2023-05-16T20:48:46.830Z,17.45
2023-05-16T20:51:15.000Z,17.40
2023-05-16T20:53:44.496Z,17.34
2023-05-16T20:56:12.582Z,17.29
2023-05-16T20:58:42.238Z,17.23
2023-05-16T21:01:10.628Z,17.17
2023-05-16T21:03:38.989Z,17.08
2023-05-16T21:06:07.604Z,16.98
2023-05-16T21:08:36.059Z,16.90
2023-05-16T21:11:04.241Z,16.83
2023-05-16T21:13:33.073Z,16.77
2023-05-16T21:16:01.326Z,16.70
2023-05-16T21:18:29.769Z,16.64
2023-05-16T21:21:07.657Z,16.58
2023-05-16T21:23:35.889Z,16.53
2023-05-16T21:26:04.283Z,16.50
2023-05-16T21:28:34.796Z,16.47
2023-05-16T21:31:08.240Z,16.47
2023-05-16T21:33:36.610Z,16.46
2023-05-16T21:36:08.148Z,16.44
2023-05-16T21:38:56.572Z,16.41
2023-05-16T21:41:24.746Z,16.37
2023-05-16T21:44:03.417Z,16.32
2023-05-16T21:46:31.776Z,16.25
2023-05-16T21:49:14.288Z,16.18
2023-05-16T21:51:45.655Z,16.12
2023-05-16T21:54:24.584Z,16.06
2023-05-16T21:56:52.909Z,15.98
2023-05-16T21:59:21.096Z,15.90
2023-05-16T22:01:49.415Z,15.83
2023-05-16T22:04:18.079Z,15.74
2023-05-16T22:06:46.503Z,15.66
2023-05-16T22:09:14.739Z,15.59
2023-05-16T22:11:44.231Z,15.52
2023-05-16T22:14:12.506Z,15.46
2023-05-16T22:16:40.786Z,15.41
2023-05-16T22:19:09.159Z,15.40
2023-05-16T22:21:37.610Z,15.41
2023-05-16T22:24:06.370Z,15.43
2023-05-16T22:26:34.439Z,15.45
2023-05-16T22:29:02.716Z,15.47
2023-05-16T22:31:31.092Z,15.50
2023-05-16T22:33:59.326Z,15.53
2023-05-16T22:36:27.749Z,15.56
2023-05-16T22:38:56.077Z,15.59
2023-05-16T22:41:24.296Z,15.64
2023-05-16T22:43:52.790Z,15.68
2023-05-16T22:46:21.069Z,15.74
2023-05-16T22:48:49.591Z,15.78
2023-05-16T22:51:18.238Z,15.82
2023-05-16T22:53:48.894Z,15.86
2023-05-16T22:56:17.344Z,15.92
2023-05-16T22:58:47.052Z,15.97
2023-05-16T23:01:15.740Z,16.00
2023-05-16T23:03:44.064Z,16.04
2023-05-16T23:06:12.208Z,16.07
2023-05-16T23:08:41.209Z,16.10
2023-05-16T23:11:09.152Z,16.13
2023-05-16T23:13:37.256Z,16.15
2023-05-16T23:16:06.005Z,16.16
2023-05-16T23:18:34.170Z,16.18
2023-05-16T23:21:02.865Z,16.20
2023-05-16T23:23:30.916Z,16.21
2023-05-16T23:25:59.024Z,16.22
2023-05-16T23:28:30.543Z,16.22
2023-05-16T23:30:58.636Z,16.21
2023-05-16T23:33:26.979Z,16.19
2023-05-16T23:35:55.428Z,16.15
2023-05-16T23:38:23.788Z,16.10
2023-05-16T23:40:52.399Z,16.05
2023-05-16T23:43:21.330Z,15.98
2023-05-16T23:45:49.486Z,15.91
2023-05-16T23:48:17.672Z,15.84
2023-05-16T23:50:45.908Z,15.79
2023-05-16T23:53:14.183Z,15.76
2023-05-16T23:55:42.185Z,15.73
2023-05-16T23:58:10.308Z,15.72
